Time;durP1;ratioP1;P1;durP2;ratioP2;P2;SDS_P1;SDS_P2;PMS_P1;PMS_P2;Temp;Humidity;BMP_temperature;BMP_pressure;BME280_temperature;BME280_humidity;BME280_pressure;Samples;Min_cycle;Max_cycle;Signal;HPM_P1;HPM_P2
2023/08/21 00:01:40;;;;;;;0.10;0.10;;;24.90;99.90;;;;;;5011399;28;20298;-84
2023/08/21 00:04:05;;;;;;;0.10;0.10;;;24.80;99.90;;;;;;5011909;28;20193;-84
2023/08/21 00:06:31;;;;;;;0.10;0.10;;;24.80;99.90;;;;;;5011039;28;20258;-83
2023/08/21 00:09:04;;;;;;;0.10;0.10;;;24.80;99.90;;;;;;5086612;27;20585;-83
2023/08/21 00:11:29;;;;;;;0.10;0.10;;;24.70;99.90;;;;;;5069076;28;20602;-83
2023/08/21 00:13:55;;;;;;;0.10;0.10;;;24.70;99.90;;;;;;5063718;28;20177;-82
2023/08/21 00:16:20;;;;;;;0.10;0.10;;;24.70;99.90;;;;;;5063966;28;20219;-83
2023/08/21 00:18:46;;;;;;;0.10;0.10;;;24.70;99.90;;;;;;5078645;28;20295;-83
2023/08/21 00:21:11;;;;;;;0.10;0.10;;;24.60;99.90;;;;;;5065024;28;20209;-83
2023/08/21 00:23:38;;;;;;;0.10;0.10;;;24.60;99.90;;;;;;5064120;28;20186;-83
2023/08/21 00:26:04;;;;;;;0.10;0.10;;;24.60;99.90;;;;;;5063428;28;20260;-83
2023/08/21 00:28:32;;;;;;;0.10;0.10;;;24.60;99.90;;;;;;5064168;28;20303;-83
2023/08/21 00:31:05;;;;;;;0.10;0.10;;;24.60;99.90;;;;;;5080113;28;20236;-82
2023/08/21 00:33:31;;;;;;;0.10;0.10;;;24.60;99.90;;;;;;5065704;28;20189;-83
2023/08/21 00:35:57;;;;;;;0.10;0.10;;;24.50;99.90;;;;;;5066960;28;20670;-83
2023/08/21 00:38:23;;;;;;;0.10;0.10;;;24.50;99.90;;;;;;5064485;28;20254;-82
2023/08/21 00:40:49;;;;;;;0.10;0.10;;;24.60;99.90;;;;;;5064378;28;20197;-83
2023/08/21 00:43:14;;;;;;;0.10;0.10;;;24.50;99.90;;;;;;5075724;28;20185;-83
2023/08/21 00:45:42;;;;;;;0.10;0.10;;;24.40;99.90;;;;;;5064113;28;20559;-82
2023/08/21 00:48:09;;;;;;;0.10;0.10;;;24.40;99.90;;;;;;5067070;28;20694;-82
2023/08/21 00:50:35;;;;;;;0.10;0.10;;;24.30;99.90;;;;;;5066706;28;20827;-82
2023/08/21 00:53:03;;;;;;;0.10;0.10;;;24.30;99.90;;;;;;5067239;28;21000;-83
2023/08/21 00:55:29;;;;;;;0.10;0.10;;;24.30;99.90;;;;;;5064883;28;20285;-82
2023/08/21 00:57:55;;;;;;;0.10;0.10;;;24.30;99.90;;;;;;5066346;28;20190;-82
2023/08/21 01:00:22;;;;;;;0.10;0.10;;;24.30;99.90;;;;;;5064877;28;20346;-81
2023/08/21 01:02:48;;;;;;;0.10;0.10;;;24.30;99.90;;;;;;5065145;28;20192;-82
2023/08/21 01:05:13;;;;;;;0.10;0.10;;;24.30;99.90;;;;;;5066723;28;20189;-81
2023/08/21 01:07:49;;;;;;;0.10;0.10;;;24.30;99.90;;;;;;5065717;28;20270;-82
2023/08/21 01:10:27;;;;;;;0.10;0.10;;;24.20;99.90;;;;;;5081417;28;20212;-82
2023/08/21 01:13:09;;;;;;;0.10;0.10;;;24.20;99.90;;;;;;5066224;28;20223;-82
2023/08/21 01:15:37;;;;;;;0.10;0.10;;;24.20;99.90;;;;;;5063544;28;20185;-82
2023/08/21 01:18:03;;;;;;;0.10;0.10;;;24.10;99.90;;;;;;5065524;28;20188;-81
2023/08/21 01:20:29;;;;;;;0.10;0.10;;;24.10;99.90;;;;;;5049945;28;20286;-82
2023/08/21 01:22:55;;;;;;;0.10;0.10;;;24.10;99.90;;;;;;5053763;28;20614;-82
2023/08/21 01:25:20;;;;;;;0.10;0.10;;;24.10;99.90;;;;;;5051334;28;20194;-82
2023/08/21 01:27:50;;;;;;;0.10;0.10;;;24.00;99.90;;;;;;5052703;28;20224;-82
2023/08/21 01:30:16;;;;;;;0.10;0.10;;;24.00;99.90;;;;;;5050033;28;20216;-81
2023/08/21 01:33:08;;;;;;;0.10;0.10;;;24.00;99.90;;;;;;5051689;28;20177;-82
2023/08/21 01:35:35;;;;;;;0.10;0.10;;;23.90;99.90;;;;;;5051950;28;20186;-82
2023/08/21 01:38:02;;;;;;;0.10;0.10;;;23.70;99.90;;;;;;5054168;28;20221;-82
2023/08/21 01:40:27;;;;;;;0.10;0.10;;;23.60;99.90;;;;;;5050831;28;20267;-82
2023/08/21 01:42:54;;;;;;;0.10;0.10;;;23.50;99.90;;;;;;5050229;28;20202;-82
2023/08/21 01:45:19;;;;;;;0.10;0.10;;;23.20;99.90;;;;;;5052364;28;20193;-82
2023/08/21 01:47:45;;;;;;;0.10;0.10;;;23.20;99.90;;;;;;5061368;28;20259;-82
2023/08/21 01:50:11;;;;;;;0.10;0.10;;;23.20;99.90;;;;;;5052276;28;20702;-82
2023/08/21 01:52:36;;;;;;;0.10;0.10;;;23.00;99.90;;;;;;5051569;28;20207;-82
2023/08/21 01:55:03;;;;;;;0.10;0.10;;;22.90;99.90;;;;;;5051982;28;20253;-82
2023/08/21 01:57:29;;;;;;;0.10;0.10;;;22.80;99.90;;;;;;5051228;28;20693;-82
2023/08/21 01:59:54;;;;;;;0.10;0.10;;;22.80;99.90;;;;;;5049892;28;20226;-82
2023/08/21 02:02:20;;;;;;;0.10;0.10;;;22.80;99.90;;;;;;5053204;28;20300;-82
2023/08/21 02:04:45;;;;;;;0.10;0.10;;;22.80;99.90;;;;;;5052966;28;20280;-82
2023/08/21 02:07:11;;;;;;;0.10;0.10;;;22.70;99.90;;;;;;5052688;28;20221;-82
2023/08/21 02:09:36;;;;;;;0.10;0.10;;;22.80;99.90;;;;;;5048358;28;20711;-81
2023/08/21 02:12:02;;;;;;;0.10;0.10;;;22.80;99.90;;;;;;5051101;28;20201;-82
2023/08/21 02:14:28;;;;;;;0.10;0.10;;;22.70;99.90;;;;;;5051318;28;20612;-82
2023/08/21 02:16:53;;;;;;;0.10;0.10;;;22.70;99.90;;;;;;5052049;28;20185;-82
2023/08/21 02:19:19;;;;;;;0.10;0.10;;;22.70;99.90;;;;;;5050403;28;20186;-82
2023/08/21 02:21:44;;;;;;;0.10;0.10;;;22.60;99.90;;;;;;5052627;28;20254;-83
2023/08/21 02:24:10;;;;;;;0.10;0.10;;;22.70;99.90;;;;;;5066004;28;20186;-82
2023/08/21 02:26:35;;;;;;;0.10;0.10;;;22.80;99.90;;;;;;5050587;28;20197;-82
2023/08/21 02:29:01;;;;;;;0.10;0.10;;;22.70;99.90;;;;;;5049765;28;20209;-82
2023/08/21 02:31:26;;;;;;;0.10;0.10;;;22.80;99.90;;;;;;5047853;28;20208;-82
2023/08/21 02:33:52;;;;;;;0.10;0.10;;;22.70;99.90;;;;;;5051979;28;20316;-82
2023/08/21 02:36:18;;;;;;;0.10;0.10;;;22.80;99.90;;;;;;5049582;28;20194;-82
2023/08/21 02:38:43;;;;;;;0.10;0.10;;;22.80;99.90;;;;;;5049822;28;20384;-82
2023/08/21 02:41:09;;;;;;;0.10;0.10;;;22.80;99.90;;;;;;5050267;28;20232;-82
2023/08/21 02:43:34;;;;;;;0.10;0.10;;;22.80;99.90;;;;;;5051134;28;20189;-82
2023/08/21 02:46:00;;;;;;;0.10;0.10;;;23.00;99.90;;;;;;5048254;28;20188;-82
2023/08/21 02:48:25;;;;;;;0.10;0.10;;;23.10;99.90;;;;;;5049594;28;20253;-82
2023/08/21 02:50:51;;;;;;;0.10;0.10;;;22.90;99.90;;;;;;5049488;28;20288;-82
2023/08/21 02:53:17;;;;;;;0.10;0.10;;;22.90;99.90;;;;;;5048236;28;20182;-82
2023/08/21 02:55:42;;;;;;;0.10;0.10;;;22.80;99.90;;;;;;5040935;28;20284;-82
2023/08/21 02:58:08;;;;;;;0.10;0.10;;;22.90;99.90;;;;;;5048919;28;20244;-82
2023/08/21 03:00:34;;;;;;;0.10;0.10;;;22.90;99.90;;;;;;5046279;28;20201;-82
2023/08/21 03:02:59;;;;;;;0.10;0.10;;;22.90;99.90;;;;;;5049734;28;20203;-82
2023/08/21 03:05:25;;;;;;;0.10;0.10;;;22.90;99.90;;;;;;5047947;28;20186;-82
2023/08/21 03:07:50;;;;;;;0.10;0.10;;;23.00;99.90;;;;;;5047967;28;20209;-82
2023/08/21 03:10:16;;;;;;;0.10;0.10;;;23.00;99.90;;;;;;5047213;28;20213;-82
2023/08/21 03:12:42;;;;;;;0.10;0.10;;;23.00;99.90;;;;;;5046304;28;20544;-82
2023/08/21 03:15:07;;;;;;;0.10;0.10;;;23.00;99.90;;;;;;5050170;28;20189;-82
2023/08/21 03:17:33;;;;;;;0.10;0.10;;;23.00;99.90;;;;;;5063366;28;20292;-82
2023/08/21 03:19:58;;;;;;;0.10;0.10;;;23.00;99.90;;;;;;5048812;28;20197;-82
2023/08/21 03:22:24;;;;;;;0.10;0.10;;;23.00;99.90;;;;;;5046322;28;20220;-82
2023/08/21 03:24:49;;;;;;;0.10;0.10;;;22.80;99.90;;;;;;5046311;28;20190;-81
2023/08/21 03:27:16;;;;;;;0.10;0.10;;;22.80;99.90;;;;;;5047479;28;20260;-82
2023/08/21 03:29:48;;;;;;;0.10;0.10;;;22.80;99.90;;;;;;5046081;28;20177;-82
2023/08/21 03:32:14;;;;;;;0.10;0.10;;;22.80;99.90;;;;;;5046169;28;20221;-83
2023/08/21 03:34:40;;;;;;;0.10;0.10;;;22.80;99.90;;;;;;5046127;28;20297;-82
2023/08/21 03:37:05;;;;;;;0.10;0.10;;;22.80;99.90;;;;;;5048378;28;20702;-82
2023/08/21 03:39:31;;;;;;;0.10;0.10;;;22.50;99.90;;;;;;5043414;28;20547;-82
2023/08/21 03:41:56;;;;;;;0.10;0.10;;;22.50;99.90;;;;;;5043356;28;20305;-82
2023/08/21 03:44:22;;;;;;;0.10;0.10;;;22.60;99.90;;;;;;5047163;28;20647;-82
2023/08/21 03:46:47;;;;;;;0.10;0.10;;;22.60;99.90;;;;;;5047042;28;20189;-82
2023/08/21 03:49:13;;;;;;;0.10;0.10;;;22.70;99.90;;;;;;5046082;28;20182;-82
2023/08/21 03:51:38;;;;;;;0.10;0.10;;;22.70;99.90;;;;;;5045610;28;20558;-82
2023/08/21 03:54:05;;;;;;;0.10;0.10;;;22.70;99.90;;;;;;5043586;28;20880;-82
2023/08/21 03:56:30;;;;;;;0.10;0.10;;;22.70;99.90;;;;;;5044914;28;20181;-82
2023/08/21 03:58:56;;;;;;;0.10;0.10;;;22.40;99.90;;;;;;5044847;28;20702;-82
2023/08/21 04:01:21;;;;;;;0.10;0.10;;;22.30;99.90;;;;;;5043985;28;20209;-82
2023/08/21 04:03:47;;;;;;;0.10;0.10;;;22.40;99.90;;;;;;5052308;28;20201;-82
2023/08/21 04:06:12;;;;;;;0.10;0.10;;;22.50;99.90;;;;;;5058801;28;20194;-82
2023/08/21 04:08:38;;;;;;;0.10;0.10;;;22.50;99.90;;;;;;5041054;28;20303;-82
2023/08/21 04:11:05;;;;;;;0.10;0.10;;;22.50;99.90;;;;;;5041435;28;20217;-82
2023/08/21 04:13:31;;;;;;;0.10;0.10;;;22.60;99.90;;;;;;5042448;28;20269;-82
2023/08/21 04:15:56;;;;;;;0.10;0.10;;;22.60;99.90;;;;;;5044234;28;20681;-82
2023/08/21 04:18:22;;;;;;;0.10;0.10;;;22.50;99.90;;;;;;5043196;28;20216;-82
2023/08/21 04:20:48;;;;;;;0.10;0.10;;;22.40;99.90;;;;;;5042980;28;20209;-82
2023/08/21 04:23:14;;;;;;;0.10;0.10;;;22.30;99.90;;;;;;5041865;28;20185;-82
2023/08/21 04:25:39;;;;;;;0.10;0.10;;;22.20;99.90;;;;;;5042710;28;20196;-82
2023/08/21 04:28:07;;;;;;;0.10;0.10;;;22.30;99.90;;;;;;5042532;28;20209;-82
2023/08/21 04:30:33;;;;;;;0.10;0.10;;;22.10;99.90;;;;;;5040955;28;20198;-83
2023/08/21 04:32:59;;;;;;;0.10;0.10;;;22.20;99.90;;;;;;5042249;28;20602;-82
2023/08/21 04:35:24;;;;;;;0.10;0.10;;;22.10;99.90;;;;;;5039846;28;20226;-82
2023/08/21 04:37:50;;;;;;;0.10;0.10;;;22.10;99.90;;;;;;5041787;28;20189;-83
2023/08/21 04:40:17;;;;;;;0.10;0.10;;;22.20;99.90;;;;;;5042099;28;20205;-82
2023/08/21 04:42:43;;;;;;;0.10;0.10;;;22.00;99.90;;;;;;5042890;28;20243;-82
2023/08/21 04:45:09;;;;;;;0.10;0.10;;;22.00;99.90;;;;;;5041974;28;20182;-83
2023/08/21 04:47:35;;;;;;;0.10;0.10;;;22.00;99.90;;;;;;5043612;28;20217;-82
2023/08/21 04:50:00;;;;;;;0.10;0.10;;;21.90;99.90;;;;;;5047203;28;20232;-82
2023/08/21 04:52:26;;;;;;;0.10;0.10;;;22.00;99.90;;;;;;5043485;28;20301;-84
2023/08/21 04:54:51;;;;;;;0.10;0.10;;;22.00;99.90;;;;;;5045051;28;20186;-84
2023/08/21 04:57:17;;;;;;;0.10;0.10;;;22.10;99.90;;;;;;5044838;28;20189;-84
2023/08/21 04:59:43;;;;;;;0.10;0.10;;;22.00;99.90;;;;;;5044143;28;20223;-83
2023/08/21 05:02:09;;;;;;;0.03;0.03;;;22.10;99.90;;;;;;5041363;28;20255;-83
2023/08/21 05:04:36;;;;;;;0.10;0.10;;;22.30;99.90;;;;;;5044846;28;20190;-83
2023/08/21 05:07:03;;;;;;;0.10;0.10;;;22.50;99.90;;;;;;5044478;28;20289;-83
2023/08/21 05:09:28;;;;;;;0.10;0.10;;;22.50;99.90;;;;;;5045532;28;20217;-83
2023/08/21 05:11:55;;;;;;;0.10;0.10;;;22.40;99.90;;;;;;5051175;28;20205;-82
2023/08/21 05:14:21;;;;;;;0.10;0.10;;;22.40;99.90;;;;;;5052543;28;20182;-83
2023/08/21 05:16:51;;;;;;;0.10;0.10;;;22.50;99.90;;;;;;5051642;28;20185;-82
2023/08/21 05:19:17;;;;;;;0.10;0.10;;;22.60;99.90;;;;;;5050570;28;20189;-83
2023/08/21 05:21:43;;;;;;;0.10;0.10;;;22.50;99.90;;;;;;5051471;28;20236;-83
2023/08/21 05:24:09;;;;;;;0.10;0.10;;;22.60;99.90;;;;;;5052271;28;20190;-83
2023/08/21 05:26:38;;;;;;;0.10;0.10;;;22.80;99.90;;;;;;5054024;28;20266;-83
2023/08/21 05:29:04;;;;;;;0.10;0.10;;;22.70;99.90;;;;;;5052058;28;20209;-83
2023/08/21 05:31:30;;;;;;;0.10;0.10;;;22.50;99.90;;;;;;5066712;28;20255;-82
2023/08/21 05:33:55;;;;;;;0.10;0.10;;;22.50;99.90;;;;;;5050601;28;20539;-82
2023/08/21 05:36:21;;;;;;;0.10;0.10;;;22.50;99.90;;;;;;5050374;28;20189;-83
2023/08/21 05:38:48;;;;;;;0.10;0.10;;;22.50;99.90;;;;;;5049764;28;20889;-84
2023/08/21 05:41:14;;;;;;;0.10;0.10;;;22.80;99.90;;;;;;5049712;28;20288;-84
2023/08/21 05:43:42;;;;;;;0.10;0.10;;;23.10;99.90;;;;;;5048494;28;20182;-83
2023/08/21 05:46:07;;;;;;;0.10;0.10;;;23.30;99.90;;;;;;5050029;28;20185;-83
2023/08/21 05:48:33;;;;;;;0.10;0.10;;;23.40;99.90;;;;;;5049601;28;20206;-84
2023/08/21 05:50:59;;;;;;;0.10;0.10;;;23.60;99.90;;;;;;5048769;28;20237;-83
2023/08/21 05:53:25;;;;;;;0.10;0.10;;;23.60;99.90;;;;;;5049954;28;20212;-84
2023/08/21 05:55:51;;;;;;;0.10;0.10;;;23.40;99.90;;;;;;5048767;28;20224;-83
2023/08/21 05:58:16;;;;;;;0.10;0.10;;;23.60;99.90;;;;;;5045961;28;20198;-83
2023/08/21 06:00:42;;;;;;;0.10;0.10;;;23.60;99.90;;;;;;5047134;28;20915;-83
2023/08/21 06:03:08;;;;;;;0.10;0.10;;;23.90;99.90;;;;;;5047381;28;20193;-84
2023/08/21 06:05:33;;;;;;;0.10;0.10;;;24.00;99.90;;;;;;5046239;28;20189;-84
2023/08/21 06:07:59;;;;;;;0.10;0.10;;;24.20;99.90;;;;;;5047880;28;20224;-84
2023/08/21 06:10:24;;;;;;;0.87;0.87;;;24.40;99.90;;;;;;5038527;28;20206;-84
2023/08/21 06:12:51;;;;;;;0.10;0.10;;;24.50;99.90;;;;;;5046153;28;20185;-84
2023/08/21 06:15:16;;;;;;;0.10;0.10;;;24.60;99.90;;;;;;5047926;28;20317;-84
2023/08/21 06:17:42;;;;;;;0.10;0.10;;;24.80;99.90;;;;;;5047665;28;20291;-84
2023/08/21 06:20:13;;;;;;;0.10;0.10;;;24.90;99.90;;;;;;5046759;28;20214;-84
2023/08/21 06:22:39;;;;;;;0.10;0.10;;;24.50;99.90;;;;;;5047022;28;20188;-84
2023/08/21 06:25:05;;;;;;;0.10;0.10;;;24.70;99.90;;;;;;5046220;28;20189;-84
2023/08/21 06:27:30;;;;;;;0.10;0.10;;;24.70;99.90;;;;;;5047059;28;20202;-84
2023/08/21 06:29:56;;;;;;;0.10;0.10;;;24.80;99.90;;;;;;5062958;28;20209;-84
2023/08/21 06:32:22;;;;;;;0.10;0.10;;;25.10;99.90;;;;;;5045049;28;20181;-84
2023/08/21 06:34:47;;;;;;;0.10;0.10;;;25.30;99.90;;;;;;5047117;28;20193;-84
2023/08/21 06:37:13;;;;;;;0.10;0.10;;;25.50;99.90;;;;;;5047536;28;20203;-84
2023/08/21 06:39:38;;;;;;;0.10;0.10;;;25.70;99.90;;;;;;5046296;28;20201;-84
2023/08/21 06:42:04;;;;;;;0.10;0.10;;;25.80;99.90;;;;;;5048656;28;20205;-84
2023/08/21 06:44:30;;;;;;;0.10;0.10;;;25.90;99.90;;;;;;5046635;28;20198;-84
2023/08/21 06:46:55;;;;;;;0.10;0.10;;;26.00;99.90;;;;;;5047182;28;20193;-83
2023/08/21 06:49:21;;;;;;;0.10;0.10;;;26.00;99.90;;;;;;5038632;28;20186;-84
2023/08/21 06:51:46;;;;;;;0.10;0.10;;;26.10;99.90;;;;;;5037824;28;20209;-85
2023/08/21 06:54:12;;;;;;;0.10;0.10;;;26.20;99.90;;;;;;5034467;28;20190;-84
2023/08/21 06:56:37;;;;;;;0.10;0.10;;;26.30;99.90;;;;;;5038899;28;20188;-83
2023/08/21 06:59:03;;;;;;;0.10;0.10;;;26.40;99.90;;;;;;5040693;28;21177;-83
2023/08/21 07:01:28;;;;;;;0.10;0.10;;;26.60;99.90;;;;;;5047233;28;20205;-84
2023/08/21 07:03:54;;;;;;;0.10;0.10;;;26.50;99.90;;;;;;5046439;28;20185;-83
2023/08/21 07:06:20;;;;;;;0.10;0.10;;;26.40;99.90;;;;;;5046262;28;20201;-83
2023/08/21 07:08:46;;;;;;;0.10;0.10;;;26.40;99.90;;;;;;5045939;28;20243;-83
2023/08/21 07:11:12;;;;;;;0.10;0.10;;;26.50;99.90;;;;;;5049293;28;20213;-83
2023/08/21 07:13:38;;;;;;;0.10;0.10;;;26.10;99.90;;;;;;5049151;28;20185;-82
2023/08/21 07:16:05;;;;;;;0.10;0.10;;;26.00;99.90;;;;;;5049045;28;20236;-82
2023/08/21 07:18:33;;;;;;;0.10;0.10;;;26.50;99.90;;;;;;5046264;28;20276;-82
2023/08/21 07:20:59;;;;;;;0.10;0.10;;;26.70;99.90;;;;;;5061193;28;20277;-82
2023/08/21 07:23:24;;;;;;;0.10;0.10;;;26.90;99.90;;;;;;5044657;28;20197;-83
2023/08/21 07:25:50;;;;;;;0.10;0.10;;;27.20;99.90;;;;;;5044860;28;20215;-82
2023/08/21 07:28:15;;;;;;;0.10;0.10;;;27.40;99.90;;;;;;5041620;28;20639;-83
2023/08/21 07:30:41;;;;;;;0.10;0.10;;;27.40;99.90;;;;;;5044989;28;20228;-82
2023/08/21 07:33:06;;;;;;;0.10;0.10;;;27.50;99.90;;;;;;5045221;28;20205;-83
2023/08/21 07:35:32;;;;;;;0.10;0.10;;;27.50;99.90;;;;;;5060990;28;20189;-83
2023/08/21 07:37:58;;;;;;;0.10;0.10;;;27.50;99.90;;;;;;5044349;28;20185;-83
2023/08/21 07:40:25;;;;;;;0.10;0.10;;;27.80;99.90;;;;;;5044440;28;20606;-83
2023/08/21 07:42:51;;;;;;;0.10;0.10;;;28.00;99.90;;;;;;5046166;28;20201;-83
2023/08/21 07:45:16;;;;;;;0.10;0.10;;;28.00;99.90;;;;;;5043019;28;20446;-83
2023/08/21 07:47:42;;;;;;;0.10;0.10;;;28.10;99.90;;;;;;5044839;28;20216;-82
2023/08/21 07:50:08;;;;;;;0.10;0.10;;;28.30;99.90;;;;;;5044281;28;20181;-83
2023/08/21 07:52:35;;;;;;;0.10;0.10;;;28.50;99.90;;;;;;5044932;28;20185;-82
2023/08/21 07:55:00;;;;;;;0.10;0.10;;;28.60;99.90;;;;;;5040872;28;20181;-82
2023/08/21 07:57:27;;;;;;;0.10;0.10;;;28.60;99.90;;;;;;5042679;28;21324;-83
2023/08/21 07:59:52;;;;;;;0.10;0.10;;;28.40;99.90;;;;;;5044477;28;20190;-83
2023/08/21 08:02:18;;;;;;;0.10;0.10;;;28.30;99.90;;;;;;5050805;28;20653;-83
2023/08/21 08:04:44;;;;;;;0.10;0.10;;;28.10;99.90;;;;;;5057814;28;20263;-83
2023/08/21 08:07:09;;;;;;;0.10;0.10;;;28.30;99.90;;;;;;5041739;28;20204;-83
2023/08/21 08:09:35;;;;;;;0.10;0.10;;;28.50;99.90;;;;;;5058567;28;20501;-83
2023/08/21 08:12:01;;;;;;;0.10;0.10;;;28.70;99.90;;;;;;5042195;28;20213;-83
2023/08/21 08:14:27;;;;;;;0.10;0.10;;;28.50;99.90;;;;;;5044196;28;20186;-83
2023/08/21 08:16:52;;;;;;;0.10;0.10;;;28.60;99.90;;;;;;5059405;28;20189;-82
2023/08/21 08:19:18;;;;;;;0.10;0.10;;;28.90;99.90;;;;;;5043431;28;20182;-83
2023/08/21 08:21:43;;;;;;;0.10;0.10;;;29.20;99.90;;;;;;5044245;28;20205;-83
2023/08/21 08:24:09;;;;;;;0.10;0.10;;;29.20;99.90;;;;;;5048274;28;20666;-83
2023/08/21 08:26:35;;;;;;;0.10;0.10;;;29.40;99.90;;;;;;5047540;28;20213;-83
2023/08/21 08:29:00;;;;;;;0.10;0.10;;;29.40;99.90;;;;;;5046365;28;20270;-82
2023/08/21 08:31:27;;;;;;;0.10;0.10;;;29.50;99.90;;;;;;5048899;28;20276;-83
2023/08/21 08:33:54;;;;;;;0.10;0.10;;;29.60;99.90;;;;;;5052747;28;20170;-83
2023/08/21 08:36:20;;;;;;;0.10;0.10;;;29.60;99.90;;;;;;5061755;28;20186;-82
2023/08/21 08:38:45;;;;;;;0.10;0.10;;;29.60;99.90;;;;;;5050376;28;20869;-82
2023/08/21 08:41:21;;;;;;;0.10;0.10;;;29.80;99.90;;;;;;5050288;28;20210;-83
2023/08/21 08:43:47;;;;;;;0.10;0.10;;;29.70;99.90;;;;;;5049572;28;20192;-83
2023/08/21 08:46:13;;;;;;;0.10;0.10;;;29.80;99.90;;;;;;5046600;28;20182;-83
2023/08/21 08:48:39;;;;;;;0.10;0.10;;;30.00;99.90;;;;;;5063947;28;20221;-83
2023/08/21 08:51:04;;;;;;;0.10;0.10;;;30.20;99.90;;;;;;5047793;28;20205;-83
2023/08/21 08:53:30;;;;;;;0.10;0.10;;;30.30;99.90;;;;;;5046148;28;20667;-83
2023/08/21 08:55:58;;;;;;;0.10;0.10;;;30.40;99.90;;;;;;5045741;28;20185;-83
2023/08/21 08:58:23;;;;;;;0.10;0.10;;;30.30;99.90;;;;;;5062455;28;20190;-83
2023/08/21 09:00:49;;;;;;;0.10;0.10;;;30.30;99.90;;;;;;5045982;28;20205;-83
2023/08/21 09:03:15;;;;;;;0.10;0.10;;;30.40;99.90;;;;;;5047754;28;20260;-83
2023/08/21 09:05:41;;;;;;;0.10;0.10;;;30.50;99.90;;;;;;5048895;28;20193;-83
2023/08/21 09:08:11;;;;;;;0.10;0.10;;;30.50;99.90;;;;;;5046934;28;20214;-82
2023/08/21 09:10:38;;;;;;;0.10;0.10;;;30.60;99.90;;;;;;5047455;28;20198;-83
2023/08/21 09:13:18;;;;;;;0.10;0.10;;;30.70;99.90;;;;;;5049646;28;20247;-83
2023/08/21 09:15:53;;;;;;;0.10;0.10;;;30.60;99.90;;;;;;5049204;28;20185;-83
2023/08/21 09:18:18;;;;;;;0.10;0.10;;;30.50;99.90;;;;;;5048235;28;20181;-83
2023/08/21 09:20:44;;;;;;;0.10;0.10;;;30.70;99.90;;;;;;5047684;28;20598;-83
2023/08/21 09:23:15;;;;;;;0.10;0.10;;;30.90;99.90;;;;;;5048689;28;20190;-83
2023/08/21 09:25:44;;;;;;;0.10;0.10;;;30.90;99.90;;;;;;5048461;28;20726;-83
2023/08/21 09:28:10;;;;;;;0.10;0.10;;;30.90;99.90;;;;;;5046574;28;20221;-82
2023/08/21 09:30:51;;;;;;;0.10;0.10;;;31.10;99.90;;;;;;5046204;28;20206;-84
2023/08/21 09:33:22;;;;;;;0.10;0.10;;;31.20;99.90;;;;;;5054201;28;20213;-83
2023/08/21 09:35:51;;;;;;;0.10;0.10;;;31.40;99.90;;;;;;5050879;28;20239;-85
2023/08/21 09:38:16;;;;;;;0.10;0.10;;;31.40;99.90;;;;;;5052012;28;20196;-85
2023/08/21 09:40:49;;;;;;;0.10;0.10;;;31.30;99.90;;;;;;5049151;28;20202;-84
2023/08/21 09:43:15;;;;;;;0.10;0.10;;;31.30;99.90;;;;;;5060591;28;20193;-84
2023/08/21 09:45:40;;;;;;;0.10;0.10;;;31.20;99.90;;;;;;5052776;28;20245;-85
2023/08/21 09:48:07;;;;;;;0.10;0.10;;;31.30;99.90;;;;;;5050905;28;20271;-84
2023/08/21 09:50:34;;;;;;;0.10;0.10;;;31.40;99.90;;;;;;5055590;28;20206;-83
2023/08/21 09:53:01;;;;;;;0.10;0.10;;;31.60;99.90;;;;;;5053534;28;20181;-84
2023/08/21 09:55:29;;;;;;;0.10;0.10;;;31.70;99.90;;;;;;5047899;28;20196;-83
2023/08/21 09:57:58;;;;;;;0.10;0.10;;;31.60;99.90;;;;;;5047718;28;20194;-83
2023/08/21 10:00:35;;;;;;;0.10;0.10;;;31.60;99.90;;;;;;5041454;28;20201;-83
2023/08/21 10:03:05;;;;;;;0.10;0.10;;;32.00;99.90;;;;;;5050281;28;20184;-83
2023/08/21 10:05:36;;;;;;;0.10;0.10;;;32.20;99.90;;;;;;5047374;28;20189;-83
2023/08/21 10:08:03;;;;;;;0.10;0.10;;;32.30;99.90;;;;;;5047580;28;20327;-83
2023/08/21 10:10:37;;;;;;;0.10;0.10;;;32.50;99.90;;;;;;5066186;28;20205;-83
2023/08/21 10:13:04;;;;;;;0.10;0.10;;;32.60;99.90;;;;;;5049356;28;20181;-83
2023/08/21 10:15:34;;;;;;;0.10;0.10;;;32.80;99.90;;;;;;5049311;28;20266;-83
2023/08/21 10:18:19;;;;;;;0.10;0.10;;;32.90;99.90;;;;;;5039636;28;20189;-83
2023/08/21 10:20:45;;;;;;;0.10;0.10;;;33.00;99.90;;;;;;5056911;28;20202;-83
2023/08/21 10:23:24;;;;;;;0.10;0.10;;;32.70;99.90;;;;;;5047810;28;20198;-83
2023/08/21 10:25:54;;;;;;;0.10;0.10;;;32.50;99.90;;;;;;5046265;28;21164;-83
2023/08/21 10:28:20;;;;;;;0.20;0.20;;;32.80;99.90;;;;;;5076541;28;20214;-83
2023/08/21 10:30:45;;;;;;;0.10;0.10;;;32.90;99.90;;;;;;5049556;28;20198;-83
2023/08/21 10:33:11;;;;;;;0.10;0.10;;;32.80;99.90;;;;;;5049380;28;20205;-83
2023/08/21 10:35:36;;;;;;;0.10;0.10;;;33.00;99.90;;;;;;5047909;28;20263;-83
2023/08/21 10:38:12;;;;;;;0.10;0.10;;;32.30;99.90;;;;;;5063158;28;20178;-83
2023/08/21 10:40:39;;;;;;;0.10;0.10;;;31.80;99.90;;;;;;5046015;28;20193;-83
2023/08/21 10:43:39;;;;;;;0.10;0.10;;;32.30;99.90;;;;;;5047905;28;20209;-83
2023/08/21 10:46:05;;;;;;;0.30;0.30;;;32.90;99.90;;;;;;5063724;28;20182;-85
2023/08/21 10:48:30;;;;;;;0.10;0.10;;;33.30;99.90;;;;;;5067378;28;20209;-84
2023/08/21 10:50:57;;;;;;;0.10;0.10;;;33.40;99.90;;;;;;5053000;28;20233;-84
2023/08/21 10:53:24;;;;;;;0.20;0.20;;;33.20;99.90;;;;;;5048626;28;20689;-84
2023/08/21 10:55:56;;;;;;;0.10;0.10;;;32.90;99.90;;;;;;5049815;28;20272;-84
2023/08/21 10:58:22;;;;;;;0.10;0.10;;;33.30;99.90;;;;;;5051045;28;20189;-84
2023/08/21 11:00:56;;;;;;;0.10;0.10;;;33.60;99.90;;;;;;5049894;28;20209;-84
2023/08/21 11:03:21;;;;;;;0.10;0.10;;;33.70;99.90;;;;;;5050435;28;20190;-84
2023/08/21 11:06:03;;;;;;;0.10;0.10;;;33.80;99.90;;;;;;5050832;28;20528;-85
2023/08/21 11:08:29;;;;;;;0.10;0.10;;;33.60;99.90;;;;;;5050391;28;20210;-84
2023/08/21 11:10:54;;;;;;;0.10;0.10;;;33.70;99.90;;;;;;5051248;28;20216;-85
2023/08/21 11:13:23;;;;;;;0.10;0.10;;;33.90;99.90;;;;;;5049591;28;20178;-83
2023/08/21 11:15:56;;;;;;;0.10;0.10;;;33.70;99.90;;;;;;5055266;28;20185;-85
2023/08/21 11:18:26;;;;;;;0.10;0.10;;;33.80;99.90;;;;;;5067639;28;20199;-85
2023/08/21 11:21:02;;;;;;;0.10;0.10;;;33.70;99.90;;;;;;5064648;28;20284;-84
2023/08/21 11:23:33;;;;;;;0.10;0.10;;;33.50;99.90;;;;;;5065245;28;20246;-85
2023/08/21 11:25:59;;;;;;;0.10;0.10;;;33.70;99.90;;;;;;5063399;28;20209;-84
2023/08/21 11:28:24;;;;;;;0.10;0.10;;;33.60;99.90;;;;;;5065539;28;20232;-85
2023/08/21 11:30:50;;;;;;;0.10;0.10;;;33.70;99.90;;;;;;5082367;28;20224;-85
2023/08/21 11:33:16;;;;;;;0.10;0.10;;;33.80;99.90;;;;;;5075204;28;20189;-85
2023/08/21 11:35:42;;;;;;;0.10;0.10;;;33.80;99.90;;;;;;5064904;28;20220;-85
2023/08/21 11:38:18;;;;;;;0.10;0.10;;;33.80;99.90;;;;;;5066949;28;20224;-85
2023/08/21 11:41:02;;;;;;;0.10;0.10;;;34.20;99.90;;;;;;5062972;28;20608;-85
2023/08/21 11:43:38;;;;;;;0.10;0.10;;;34.50;99.90;;;;;;5081552;28;20169;-85
2023/08/21 11:46:08;;;;;;;0.10;0.10;;;34.70;99.90;;;;;;5064667;28;24754;-85
2023/08/21 11:48:37;;;;;;;0.10;0.10;;;34.90;99.90;;;;;;5064532;28;20280;-85
2023/08/21 11:51:02;;;;;;;0.10;0.10;;;34.80;99.90;;;;;;5077046;28;20275;-84
2023/08/21 11:53:34;;;;;;;0.10;0.10;;;34.90;99.90;;;;;;5058317;28;20186;-85
2023/08/21 11:55:59;;;;;;;0.10;0.10;;;34.90;99.90;;;;;;5056209;28;20181;-86
2023/08/21 11:58:28;;;;;;;0.10;0.10;;;34.90;99.90;;;;;;5058517;28;21314;-83
2023/08/21 12:00:54;;;;;;;0.10;0.10;;;35.00;99.90;;;;;;5059353;28;20262;-85
2023/08/21 12:03:19;;;;;;;0.10;0.10;;;35.30;99.90;;;;;;5058307;28;20185;-84
2023/08/21 12:05:45;;;;;;;0.10;0.10;;;35.10;99.90;;;;;;5061659;28;20212;-84
2023/08/21 12:08:10;;;;;;;0.10;0.10;;;35.10;99.90;;;;;;5053424;28;20224;-83
2023/08/21 12:10:36;;;;;;;0.10;0.10;;;35.10;99.90;;;;;;5058700;28;20728;-83
2023/08/21 12:13:02;;;;;;;0.10;0.10;;;35.20;99.90;;;;;;5057478;28;20190;-83
2023/08/21 12:15:27;;;;;;;0.10;0.10;;;35.20;99.90;;;;;;5059696;28;20194;-83
2023/08/21 12:17:53;;;;;;;0.10;0.10;;;35.40;99.90;;;;;;5059886;28;20559;-83
2023/08/21 12:20:19;;;;;;;0.20;0.20;;;35.50;99.90;;;;;;5054213;28;20249;-83
2023/08/21 12:22:44;;;;;;;0.20;0.20;;;35.60;99.90;;;;;;5053751;28;20205;-83
2023/08/21 12:25:13;;;;;;;0.10;0.10;;;35.80;99.90;;;;;;5048411;28;20186;-83
2023/08/21 12:27:38;;;;;;;0.10;0.10;;;35.80;99.90;;;;;;5041605;28;20208;-83
2023/08/21 12:30:05;;;;;;;0.10;0.10;;;35.60;99.90;;;;;;5041682;28;20185;-83
2023/08/21 12:32:31;;;;;;;0.10;0.10;;;35.50;99.90;;;;;;5044660;28;20184;-83
2023/08/21 12:34:56;;;;;;;0.10;0.10;;;35.40;99.90;;;;;;5043577;28;20202;-83
2023/08/21 12:37:22;;;;;;;0.10;0.10;;;35.50;99.90;;;;;;5059170;28;20179;-83
2023/08/21 12:39:47;;;;;;;0.10;0.10;;;35.50;99.90;;;;;;5041772;28;20189;-83
2023/08/21 12:42:13;;;;;;;0.10;0.10;;;35.70;99.90;;;;;;5042360;28;20244;-83
2023/08/21 12:44:39;;;;;;;0.10;0.10;;;35.70;99.90;;;;;;5044291;28;20201;-83
2023/08/21 12:47:04;;;;;;;0.10;0.10;;;35.70;99.90;;;;;;5045201;28;20221;-81